sensor_id;sensor_type;location;lat;lon;timestamp;pressure;altitude;pressure_sealevel;temperature;humidity
24996;BME280;13016;52.162;21.034;2022-12-07T00:01:22;99732.73;;;5.85;71.07
24996;BME280;13016;52.162;21.034;2022-12-07T00:03:49;99734.64;;;5.89;71.10
24996;BME280;13016;52.162;21.034;2022-12-07T00:06:16;99730.61;;;5.92;71.46
24996;BME280;13016;52.162;21.034;2022-12-07T00:08:42;99724.73;;;6.01;71.37
24996;BME280;13016;52.162;21.034;2022-12-07T00:11:13;99723.27;;;6.05;71.37
24996;BME280;13016;52.162;21.034;2022-12-07T00:13:40;99714.95;;;6.10;71.33
24996;BME280;13016;52.162;21.034;2022-12-07T00:16:14;99711.81;;;6.20;71.42
24996;BME280;13016;52.162;21.034;2022-12-07T00:18:41;99707.05;;;6.17;71.02
24996;BME280;13016;52.162;21.034;2022-12-07T00:21:11;99707.38;;;6.14;71.04
24996;BME280;13016;52.162;21.034;2022-12-07T00:23:37;99703.27;;;6.19;71.28
24996;BME280;13016;52.162;21.034;2022-12-07T00:26:14;99704.13;;;6.23;71.09
24996;BME280;13016;52.162;21.034;2022-12-07T00:28:39;99699.83;;;6.27;71.20
24996;BME280;13016;52.162;21.034;2022-12-07T00:31:08;99699.45;;;6.31;71.10
24996;BME280;13016;52.162;21.034;2022-12-07T00:33:34;99698.17;;;6.35;71.15
24996;BME280;13016;52.162;21.034;2022-12-07T00:36:01;99696.62;;;6.29;70.95
24996;BME280;13016;52.162;21.034;2022-12-07T00:38:28;99699.71;;;6.26;71.10
24996;BME280;13016;52.162;21.034;2022-12-07T00:40:56;99699.77;;;6.38;71.36
24996;BME280;13016;52.162;21.034;2022-12-07T00:43:21;99691.81;;;6.43;71.24
24996;BME280;13016;52.162;21.034;2022-12-07T00:45:46;99689.08;;;6.48;71.39
24996;BME280;13016;52.162;21.034;2022-12-07T00:48:11;99692.61;;;6.57;71.23
24996;BME280;13016;52.162;21.034;2022-12-07T00:50:37;99692.80;;;6.59;71.21
24996;BME280;13016;52.162;21.034;2022-12-07T00:53:02;99695.83;;;6.55;70.79
24996;BME280;13016;52.162;21.034;2022-12-07T00:55:27;99689.93;;;6.57;70.93
24996;BME280;13016;52.162;21.034;2022-12-07T00:57:53;99687.72;;;6.59;70.92
24996;BME280;13016;52.162;21.034;2022-12-07T01:00:18;99685.62;;;6.59;70.97
24996;BME280;13016;52.162;21.034;2022-12-07T01:02:43;99687.25;;;6.62;70.87
24996;BME280;13016;52.162;21.034;2022-12-07T01:05:09;99689.42;;;6.60;71.12
24996;BME280;13016;52.162;21.034;2022-12-07T01:07:34;99691.58;;;6.62;71.05
24996;BME280;13016;52.162;21.034;2022-12-07T01:09:59;99692.21;;;6.70;71.32
24996;BME280;13016;52.162;21.034;2022-12-07T01:12:24;99691.16;;;6.76;71.12
24996;BME280;13016;52.162;21.034;2022-12-07T01:14:50;99691.61;;;6.81;71.30
24996;BME280;13016;52.162;21.034;2022-12-07T01:17:15;99695.15;;;6.86;71.21
24996;BME280;13016;52.162;21.034;2022-12-07T01:19:40;99693.67;;;6.84;71.11
24996;BME280;13016;52.162;21.034;2022-12-07T01:22:05;99691.69;;;6.82;71.07
24996;BME280;13016;52.162;21.034;2022-12-07T01:24:31;99695.20;;;6.82;71.21
24996;BME280;13016;52.162;21.034;2022-12-07T01:26:56;99693.86;;;6.78;71.13
24996;BME280;13016;52.162;21.034;2022-12-07T01:29:21;99692.60;;;6.69;71.42
24996;BME280;13016;52.162;21.034;2022-12-07T01:31:48;99694.85;;;6.82;71.64
24996;BME280;13016;52.162;21.034;2022-12-07T01:34:14;99692.80;;;6.87;71.79
24996;BME280;13016;52.162;21.034;2022-12-07T01:36:39;99695.46;;;6.90;71.71
24996;BME280;13016;52.162;21.034;2022-12-07T01:39:06;99694.71;;;6.91;71.69
24996;BME280;13016;52.162;21.034;2022-12-07T01:41:35;99695.85;;;6.89;71.60
24996;BME280;13016;52.162;21.034;2022-12-07T01:46:52;99689.58;;;6.91;71.83
24996;BME280;13016;52.162;21.034;2022-12-07T01:49:37;99689.16;;;7.02;71.83
24996;BME280;13016;52.162;21.034;2022-12-07T01:52:15;99691.36;;;7.03;71.91
24996;BME280;13016;52.162;21.034;2022-12-07T01:54:43;99690.57;;;7.08;71.70
24996;BME280;13016;52.162;21.034;2022-12-07T01:57:09;99685.23;;;6.94;71.54
24996;BME280;13016;52.162;21.034;2022-12-07T01:59:36;99682.25;;;6.97;71.85
24996;BME280;13016;52.162;21.034;2022-12-07T02:02:04;99683.25;;;7.01;71.86
24996;BME280;13016;52.162;21.034;2022-12-07T02:04:35;99682.63;;;7.03;71.83
24996;BME280;13016;52.162;21.034;2022-12-07T02:07:02;99683.90;;;7.02;71.73
24996;BME280;13016;52.162;21.034;2022-12-07T02:09:28;99681.01;;;6.94;71.80
24996;BME280;13016;52.162;21.034;2022-12-07T02:11:56;99680.41;;;6.89;72.21
24996;BME280;13016;52.162;21.034;2022-12-07T02:14:22;99680.51;;;7.00;72.20
24996;BME280;13016;52.162;21.034;2022-12-07T02:17:25;99680.06;;;7.01;72.05
24996;BME280;13016;52.162;21.034;2022-12-07T02:28:26;99678.96;;;7.21;72.04
24996;BME280;13016;52.162;21.034;2022-12-07T02:30:55;99673.06;;;7.25;71.92
24996;BME280;13016;52.162;21.034;2022-12-07T02:33:36;99674.38;;;7.24;71.70
24996;BME280;13016;52.162;21.034;2022-12-07T02:36:09;99671.22;;;7.18;71.47
24996;BME280;13016;52.162;21.034;2022-12-07T02:38:59;99673.67;;;7.15;71.43
24996;BME280;13016;52.162;21.034;2022-12-07T02:41:44;99666.62;;;7.19;71.36
24996;BME280;13016;52.162;21.034;2022-12-07T02:44:18;99666.09;;;7.15;71.27
24996;BME280;13016;52.162;21.034;2022-12-07T02:46:51;99664.48;;;7.16;71.16
24996;BME280;13016;52.162;21.034;2022-12-07T02:49:18;99665.05;;;7.12;71.00
24996;BME280;13016;52.162;21.034;2022-12-07T02:51:46;99666.54;;;7.20;71.02
24996;BME280;13016;52.162;21.034;2022-12-07T02:54:13;99662.75;;;7.13;70.71
24996;BME280;13016;52.162;21.034;2022-12-07T02:57:15;99661.61;;;7.11;70.81
24996;BME280;13016;52.162;21.034;2022-12-07T03:00:04;99658.95;;;7.15;70.75
24996;BME280;13016;52.162;21.034;2022-12-07T03:05:15;99654.46;;;7.14;70.89
24996;BME280;13016;52.162;21.034;2022-12-07T03:07:59;99654.11;;;7.14;70.80
24996;BME280;13016;52.162;21.034;2022-12-07T03:10:40;99651.98;;;7.23;70.97
24996;BME280;13016;52.162;21.034;2022-12-07T03:15:51;99648.69;;;7.10;70.45
24996;BME280;13016;52.162;21.034;2022-12-07T03:18:25;99647.90;;;7.09;70.49
24996;BME280;13016;52.162;21.034;2022-12-07T03:20:55;99648.77;;;7.12;70.84
24996;BME280;13016;52.162;21.034;2022-12-07T03:23:23;99650.55;;;7.15;70.81
24996;BME280;13016;52.162;21.034;2022-12-07T03:25:55;99651.27;;;7.14;70.69
24996;BME280;13016;52.162;21.034;2022-12-07T03:28:23;99648.09;;;7.15;70.68
24996;BME280;13016;52.162;21.034;2022-12-07T03:30:59;99641.27;;;7.14;70.66
24996;BME280;13016;52.162;21.034;2022-12-07T03:33:36;99641.64;;;7.17;70.67
24996;BME280;13016;52.162;21.034;2022-12-07T03:36:17;99639.98;;;6.97;70.00
24996;BME280;13016;52.162;21.034;2022-12-07T03:38:55;99639.09;;;6.85;70.36
24996;BME280;13016;52.162;21.034;2022-12-07T03:41:25;99635.97;;;6.91;70.61
24996;BME280;13016;52.162;21.034;2022-12-07T03:43:55;99640.70;;;6.85;70.26
24996;BME280;13016;52.162;21.034;2022-12-07T03:46:44;99635.63;;;6.82;70.47
24996;BME280;13016;52.162;21.034;2022-12-07T03:52:28;99633.41;;;6.83;70.44
24996;BME280;13016;52.162;21.034;2022-12-07T03:55:06;99628.20;;;6.89;70.51
24996;BME280;13016;52.162;21.034;2022-12-07T03:57:37;99626.77;;;6.86;70.43
24996;BME280;13016;52.162;21.034;2022-12-07T04:00:08;99624.27;;;6.93;70.63
24996;BME280;13016;52.162;21.034;2022-12-07T04:02:37;99623.92;;;6.90;70.21
24996;BME280;13016;52.162;21.034;2022-12-07T04:05:08;99620.41;;;6.75;70.43
24996;BME280;13016;52.162;21.034;2022-12-07T04:07:38;99620.38;;;6.72;70.27
24996;BME280;13016;52.162;21.034;2022-12-07T04:16:19;99620.75;;;6.78;70.51
24996;BME280;13016;52.162;21.034;2022-12-07T04:18:47;99619.88;;;6.78;70.39
24996;BME280;13016;52.162;21.034;2022-12-07T04:21:15;99619.22;;;6.71;70.27
24996;BME280;13016;52.162;21.034;2022-12-07T04:23:43;99623.18;;;6.76;70.39
24996;BME280;13016;52.162;21.034;2022-12-07T04:26:11;99616.69;;;6.81;70.41
24996;BME280;13016;52.162;21.034;2022-12-07T04:28:38;99615.77;;;6.73;70.17
24996;BME280;13016;52.162;21.034;2022-12-07T04:31:06;99613.75;;;6.69;70.27
24996;BME280;13016;52.162;21.034;2022-12-07T04:33:35;99609.52;;;6.66;70.21
24996;BME280;13016;52.162;21.034;2022-12-07T04:36:04;99612.06;;;6.65;70.18
24996;BME280;13016;52.162;21.034;2022-12-07T04:38:33;99615.49;;;6.54;70.22
24996;BME280;13016;52.162;21.034;2022-12-07T04:40:58;99617.86;;;6.58;70.28
24996;BME280;13016;52.162;21.034;2022-12-07T04:43:23;99614.11;;;6.44;70.23
24996;BME280;13016;52.162;21.034;2022-12-07T04:45:48;99616.91;;;6.41;70.39
24996;BME280;13016;52.162;21.034;2022-12-07T04:48:17;99615.48;;;6.32;70.50
24996;BME280;13016;52.162;21.034;2022-12-07T04:50:48;99614.48;;;6.38;70.75
24996;BME280;13016;52.162;21.034;2022-12-07T04:53:16;99611.77;;;6.36;70.56
24996;BME280;13016;52.162;21.034;2022-12-07T04:55:44;99610.75;;;6.26;70.59
24996;BME280;13016;52.162;21.034;2022-12-07T04:58:13;99610.85;;;6.24;70.68
24996;BME280;13016;52.162;21.034;2022-12-07T05:00:41;99610.71;;;6.33;70.82
24996;BME280;13016;52.162;21.034;2022-12-07T05:03:07;99607.95;;;6.26;70.72
24996;BME280;13016;52.162;21.034;2022-12-07T05:05:34;99602.44;;;6.25;70.58
24996;BME280;13016;52.162;21.034;2022-12-07T05:08:00;99597.20;;;6.25;70.57
24996;BME280;13016;52.162;21.034;2022-12-07T05:10:25;99597.30;;;6.22;70.53
24996;BME280;13016;52.162;21.034;2022-12-07T05:12:53;99598.05;;;6.31;70.75
24996;BME280;13016;52.162;21.034;2022-12-07T05:15:18;99595.50;;;6.14;70.13
24996;BME280;13016;52.162;21.034;2022-12-07T05:17:46;99596.23;;;5.91;70.50
24996;BME280;13016;52.162;21.034;2022-12-07T05:20:11;99593.64;;;6.00;70.75
24996;BME280;13016;52.162;21.034;2022-12-07T05:22:39;99589.60;;;6.01;70.84
24996;BME280;13016;52.162;21.034;2022-12-07T05:25:07;99592.95;;;6.13;70.83
24996;BME280;13016;52.162;21.034;2022-12-07T05:27:35;99592.30;;;6.12;70.54
24996;BME280;13016;52.162;21.034;2022-12-07T05:30:04;99587.47;;;5.84;70.34
24996;BME280;13016;52.162;21.034;2022-12-07T05:32:32;99584.55;;;5.80;70.71
24996;BME280;13016;52.162;21.034;2022-12-07T05:34:58;99588.55;;;5.91;70.86
24996;BME280;13016;52.162;21.034;2022-12-07T05:37:23;99590.84;;;5.94;70.84
24996;BME280;13016;52.162;21.034;2022-12-07T05:39:48;99591.34;;;5.94;70.81
24996;BME280;13016;52.162;21.034;2022-12-07T05:42:13;99589.96;;;5.94;70.76
24996;BME280;13016;52.162;21.034;2022-12-07T05:44:40;99589.94;;;5.97;70.74
24996;BME280;13016;52.162;21.034;2022-12-07T05:47:05;99590.40;;;5.92;70.69
24996;BME280;13016;52.162;21.034;2022-12-07T05:49:31;99589.27;;;5.88;70.50
24996;BME280;13016;52.162;21.034;2022-12-07T05:51:56;99592.70;;;5.81;70.33
24996;BME280;13016;52.162;21.034;2022-12-07T05:54:21;99593.04;;;5.78;70.62
24996;BME280;13016;52.162;21.034;2022-12-07T05:56:49;99594.86;;;5.77;70.76
24996;BME280;13016;52.162;21.034;2022-12-07T05:59:15;99594.37;;;5.76;70.88
24996;BME280;13016;52.162;21.034;2022-12-07T06:01:42;99591.19;;;5.70;70.59
24996;BME280;13016;52.162;21.034;2022-12-07T06:04:10;99595.17;;;5.65;70.82
24996;BME280;13016;52.162;21.034;2022-12-07T06:06:36;99591.84;;;5.52;71.20
24996;BME280;13016;52.162;21.034;2022-12-07T06:09:02;99591.40;;;5.60;71.43
24996;BME280;13016;52.162;21.034;2022-12-07T06:11:30;99592.20;;;5.74;71.61
24996;BME280;13016;52.162;21.034;2022-12-07T06:14:03;99592.80;;;5.73;71.21
24996;BME280;13016;52.162;21.034;2022-12-07T06:16:31;99592.28;;;5.76;71.21
24996;BME280;13016;52.162;21.034;2022-12-07T06:19:01;99590.98;;;5.68;70.86
24996;BME280;13016;52.162;21.034;2022-12-07T06:21:29;99592.67;;;5.75;71.09
24996;BME280;13016;52.162;21.034;2022-12-07T06:23:57;99590.64;;;5.74;70.84
24996;BME280;13016;52.162;21.034;2022-12-07T06:26:22;99590.86;;;5.76;71.12
24996;BME280;13016;52.162;21.034;2022-12-07T06:28:47;99589.38;;;5.71;70.80
24996;BME280;13016;52.162;21.034;2022-12-07T06:31:13;99589.76;;;5.55;70.72
24996;BME280;13016;52.162;21.034;2022-12-07T06:33:38;99586.63;;;5.51;71.13
24996;BME280;13016;52.162;21.034;2022-12-07T06:36:04;99582.89;;;5.52;71.07
24996;BME280;13016;52.162;21.034;2022-12-07T06:38:29;99585.49;;;5.56;71.16
24996;BME280;13016;52.162;21.034;2022-12-07T06:40:54;99587.16;;;5.64;71.28
24996;BME280;13016;52.162;21.034;2022-12-07T06:43:22;99584.26;;;5.59;71.06
24996;BME280;13016;52.162;21.034;2022-12-07T06:45:47;99585.52;;;5.61;71.02
24996;BME280;13016;52.162;21.034;2022-12-07T06:48:13;99585.23;;;5.60;71.09
24996;BME280;13016;52.162;21.034;2022-12-07T06:50:40;99586.43;;;5.64;71.22
24996;BME280;13016;52.162;21.034;2022-12-07T06:53:08;99586.38;;;5.62;71.09
24996;BME280;13016;52.162;21.034;2022-12-07T06:55:38;99586.20;;;5.68;71.16
24996;BME280;13016;52.162;21.034;2022-12-07T06:58:03;99581.77;;;5.60;70.91
24996;BME280;13016;52.162;21.034;2022-12-07T07:00:31;99582.52;;;5.49;70.94
24996;BME280;13016;52.162;21.034;2022-12-07T07:03:01;99583.19;;;5.47;71.14
24996;BME280;13016;52.162;21.034;2022-12-07T07:05:29;99582.74;;;5.42;71.31
24996;BME280;13016;52.162;21.034;2022-12-07T07:07:57;99583.55;;;5.49;71.44
24996;BME280;13016;52.162;21.034;2022-12-07T07:10:24;99584.25;;;5.53;71.50
24996;BME280;13016;52.162;21.034;2022-12-07T07:12:52;99585.48;;;5.56;71.41
24996;BME280;13016;52.162;21.034;2022-12-07T07:15:20;99588.02;;;5.61;71.43
24996;BME280;13016;52.162;21.034;2022-12-07T07:17:48;99588.33;;;5.62;71.36
24996;BME280;13016;52.162;21.034;2022-12-07T07:20:33;99588.80;;;5.49;71.19
24996;BME280;13016;52.162;21.034;2022-12-07T07:23:00;99583.38;;;5.30;71.61
24996;BME280;13016;52.162;21.034;2022-12-07T07:25:29;99583.47;;;5.25;71.96
24996;BME280;13016;52.162;21.034;2022-12-07T07:27:54;99581.27;;;5.23;72.14
24996;BME280;13016;52.162;21.034;2022-12-07T07:30:19;99588.45;;;5.36;72.08
24996;BME280;13016;52.162;21.034;2022-12-07T07:32:45;99584.20;;;5.44;72.22
24996;BME280;13016;52.162;21.034;2022-12-07T07:35:10;99587.42;;;5.59;72.03
24996;BME280;13016;52.162;21.034;2022-12-07T07:37:35;99589.38;;;5.62;71.84
24996;BME280;13016;52.162;21.034;2022-12-07T07:40:01;99592.39;;;5.58;71.48
24996;BME280;13016;52.162;21.034;2022-12-07T07:42:26;99591.41;;;5.60;71.67
24996;BME280;13016;52.162;21.034;2022-12-07T07:44:51;99592.14;;;5.62;71.47
24996;BME280;13016;52.162;21.034;2022-12-07T07:47:16;99592.31;;;5.59;71.66
24996;BME280;13016;52.162;21.034;2022-12-07T07:49:42;99591.39;;;5.73;71.70
24996;BME280;13016;52.162;21.034;2022-12-07T07:52:07;99589.01;;;5.62;71.37
24996;BME280;13016;52.162;21.034;2022-12-07T07:54:32;99588.65;;;5.66;71.54
24996;BME280;13016;52.162;21.034;2022-12-07T07:56:57;99591.13;;;5.68;71.54
24996;BME280;13016;52.162;21.034;2022-12-07T07:59:23;99587.69;;;5.70;71.60
24996;BME280;13016;52.162;21.034;2022-12-07T08:01:48;99590.85;;;5.64;71.36
24996;BME280;13016;52.162;21.034;2022-12-07T08:04:14;99591.21;;;5.73;71.70
24996;BME280;13016;52.162;21.034;2022-12-07T08:06:39;99592.72;;;5.81;71.57
24996;BME280;13016;52.162;21.034;2022-12-07T08:09:04;99596.58;;;5.81;71.47
24996;BME280;13016;52.162;21.034;2022-12-07T08:11:29;99593.77;;;5.81;71.59
24996;BME280;13016;52.162;21.034;2022-12-07T08:13:55;99599.85;;;5.92;71.76
24996;BME280;13016;52.162;21.034;2022-12-07T08:16:20;99597.92;;;5.89;71.43
24996;BME280;13016;52.162;21.034;2022-12-07T08:18:45;99599.73;;;5.88;71.58
24996;BME280;13016;52.162;21.034;2022-12-07T08:21:13;99603.48;;;5.90;71.66
24996;BME280;13016;52.162;21.034;2022-12-07T08:23:39;99602.25;;;5.90;71.79
24996;BME280;13016;52.162;21.034;2022-12-07T08:26:09;99606.41;;;6.01;71.83
24996;BME280;13016;52.162;21.034;2022-12-07T08:28:36;99604.46;;;5.91;71.72
24996;BME280;13016;52.162;21.034;2022-12-07T08:31:10;99603.08;;;5.94;71.99
24996;BME280;13016;52.162;21.034;2022-12-07T08:33:39;99609.31;;;6.02;72.11
24996;BME280;13016;52.162;21.034;2022-12-07T08:36:08;99612.17;;;6.10;71.80
24996;BME280;13016;52.162;21.034;2022-12-07T08:38:37;99610.85;;;6.06;71.74
24996;BME280;13016;52.162;21.034;2022-12-07T08:41:05;99608.89;;;6.03;72.02
24996;BME280;13016;52.162;21.034;2022-12-07T08:43:32;99609.05;;;5.91;71.93
24996;BME280;13016;52.162;21.034;2022-12-07T08:46:19;99608.80;;;5.95;72.38
24996;BME280;13016;52.162;21.034;2022-12-07T08:48:58;99611.50;;;6.03;72.23
24996;BME280;13016;52.162;21.034;2022-12-07T08:51:27;99613.71;;;6.11;72.40
24996;BME280;13016;52.162;21.034;2022-12-07T08:53:53;99613.17;;;6.02;72.22
24996;BME280;13016;52.162;21.034;2022-12-07T08:56:22;99614.36;;;6.05;72.54
24996;BME280;13016;52.162;21.034;2022-12-07T08:58:48;99614.80;;;6.13;72.54
24996;BME280;13016;52.162;21.034;2022-12-07T09:01:14;99611.91;;;6.24;72.39
24996;BME280;13016;52.162;21.034;2022-12-07T09:03:39;99615.44;;;6.24;72.42
24996;BME280;13016;52.162;21.034;2022-12-07T09:06:05;99613.13;;;6.40;72.47
24996;BME280;13016;52.162;21.034;2022-12-07T09:08:34;99613.48;;;6.52;72.34
24996;BME280;13016;52.162;21.034;2022-12-07T09:11:02;99610.70;;;6.58;72.16
24996;BME280;13016;52.162;21.034;2022-12-07T09:13:28;99606.23;;;6.60;71.92
24996;BME280;13016;52.162;21.034;2022-12-07T09:15:53;99605.05;;;6.59;71.82
24996;BME280;13016;52.162;21.034;2022-12-07T09:18:18;99601.94;;;6.61;71.84
24996;BME280;13016;52.162;21.034;2022-12-07T09:20:44;99595.89;;;6.63;71.79
24996;BME280;13016;52.162;21.034;2022-12-07T09:23:09;99593.38;;;6.64;71.81
24996;BME280;13016;52.162;21.034;2022-12-07T09:25:35;99595.90;;;6.68;71.65
24996;BME280;13016;52.162;21.034;2022-12-07T09:28:01;99592.98;;;6.76;71.65
24996;BME280;13016;52.162;21.034;2022-12-07T09:33:14;99590.13;;;6.86;71.48
24996;BME280;13016;52.162;21.034;2022-12-07T09:35:47;99588.02;;;6.86;71.32
24996;BME280;13016;52.162;21.034;2022-12-07T09:38:14;99585.36;;;6.84;71.41
24996;BME280;13016;52.162;21.034;2022-12-07T09:40:40;99582.19;;;6.72;71.02
24996;BME280;13016;52.162;21.034;2022-12-07T09:43:15;99578.71;;;6.84;71.50
24996;BME280;13016;52.162;21.034;2022-12-07T09:45:43;99579.40;;;6.93;71.42
24996;BME280;13016;52.162;21.034;2022-12-07T09:48:21;99583.70;;;6.91;71.38
24996;BME280;13016;52.162;21.034;2022-12-07T09:50:48;99585.65;;;6.97;71.29
24996;BME280;13016;52.162;21.034;2022-12-07T09:53:26;99581.87;;;6.99;71.02
24996;BME280;13016;52.162;21.034;2022-12-07T09:55:53;99580.71;;;7.01;70.90
24996;BME280;13016;52.162;21.034;2022-12-07T09:58:27;99583.59;;;7.05;70.98
24996;BME280;13016;52.162;21.034;2022-12-07T10:01:00;99581.88;;;7.02;70.65
24996;BME280;13016;52.162;21.034;2022-12-07T10:03:27;99582.45;;;7.04;70.49
24996;BME280;13016;52.162;21.034;2022-12-07T10:05:53;99579.61;;;7.01;69.94
24996;BME280;13016;52.162;21.034;2022-12-07T10:08:18;99573.88;;;6.94;70.15
24996;BME280;13016;52.162;21.034;2022-12-07T10:10:45;99575.16;;;7.06;70.36
24996;BME280;13016;52.162;21.034;2022-12-07T10:13:13;99569.02;;;7.05;69.97
24996;BME280;13016;52.162;21.034;2022-12-07T10:15:51;99566.61;;;7.02;70.01
24996;BME280;13016;52.162;21.034;2022-12-07T10:21:20;99564.89;;;7.16;69.84
24996;BME280;13016;52.162;21.034;2022-12-07T10:26:39;99561.23;;;7.21;69.68
24996;BME280;13016;52.162;21.034;2022-12-07T10:31:38;99567.03;;;7.15;69.35
24996;BME280;13016;52.162;21.034;2022-12-07T10:34:22;99563.86;;;7.16;69.14
24996;BME280;13016;52.162;21.034;2022-12-07T10:36:47;99562.42;;;7.28;68.89
24996;BME280;13016;52.162;21.034;2022-12-07T10:39:15;99561.40;;;7.33;68.76
24996;BME280;13016;52.162;21.034;2022-12-07T10:41:59;99560.95;;;7.29;68.33
24996;BME280;13016;52.162;21.034;2022-12-07T10:44:27;99568.42;;;7.27;68.47
24996;BME280;13016;52.162;21.034;2022-12-07T10:55:08;99566.55;;;7.35;68.25
24996;BME280;13016;52.162;21.034;2022-12-07T11:00:36;99566.52;;;7.26;67.41
24996;BME280;13016;52.162;21.034;2022-12-07T11:14:28;99563.00;;;7.36;68.09
24996;BME280;13016;52.162;21.034;2022-12-07T11:17:12;99558.39;;;7.28;67.87
24996;BME280;13016;52.162;21.034;2022-12-07T11:33:46;99556.63;;;7.33;67.37
24996;BME280;13016;52.162;21.034;2022-12-07T11:38:44;99555.86;;;7.34;67.35
24996;BME280;13016;52.162;21.034;2022-12-07T11:41:11;99550.52;;;7.33;67.23
24996;BME280;13016;52.162;21.034;2022-12-07T11:43:54;99551.19;;;7.16;67.16
24996;BME280;13016;52.162;21.034;2022-12-07T11:46:24;99546.05;;;7.28;67.57
24996;BME280;13016;52.162;21.034;2022-12-07T11:51:21;99541.85;;;7.22;67.41
24996;BME280;13016;52.162;21.034;2022-12-07T11:56:16;99536.18;;;7.29;67.65
24996;BME280;13016;52.162;21.034;2022-12-07T11:59:13;99542.64;;;7.38;67.72
24996;BME280;13016;52.162;21.034;2022-12-07T12:04:20;99545.34;;;7.46;67.33
24996;BME280;13016;52.162;21.034;2022-12-07T12:06:50;99544.88;;;7.48;67.22
24996;BME280;13016;52.162;21.034;2022-12-07T12:12:01;99533.39;;;7.35;66.74
24996;BME280;13016;52.162;21.034;2022-12-07T12:17:30;99530.52;;;7.19;67.41
24996;BME280;13016;52.162;21.034;2022-12-07T12:23:01;99522.80;;;7.13;68.22
24996;BME280;13016;52.162;21.034;2022-12-07T12:26:06;99525.71;;;7.17;68.73
24996;BME280;13016;52.162;21.034;2022-12-07T12:33:48;99520.60;;;7.18;69.08
24996;BME280;13016;52.162;21.034;2022-12-07T12:46:55;99515.45;;;6.80;69.48
24996;BME280;13016;52.162;21.034;2022-12-07T12:51:49;99509.64;;;6.98;69.88
24996;BME280;13016;52.162;21.034;2022-12-07T12:59:23;99509.17;;;7.09;68.75
24996;BME280;13016;52.162;21.034;2022-12-07T13:01:50;99509.84;;;6.81;68.94
24996;BME280;13016;52.162;21.034;2022-12-07T13:04:22;99508.25;;;6.95;69.04
24996;BME280;13016;52.162;21.034;2022-12-07T13:06:49;99505.52;;;7.00;68.91
24996;BME280;13016;52.162;21.034;2022-12-07T13:09:24;99502.34;;;7.12;68.80
